Time;durP1;ratioP1;P1;durP2;ratioP2;P2;SDS_P1;SDS_P2;PMS_P1;PMS_P2;Temp;Humidity;BMP_temperature;BMP_pressure;BME280_temperature;BME280_humidity;BME280_pressure;Samples;Min_cycle;Max_cycle;Signal;HPM_P1;HPM_P2
2022/12/15 00:38:45;;;;;;;74.88;30.13;;;;;;;-4.05;85.36;100189.91;5073283;28;20040;-68
2022/12/15 00:41:00;;;;;;;92.40;31.67;;;;;;;-4.07;84.83;100188.31;5072899;28;20036;-69
2022/12/15 00:43:29;;;;;;;92.15;31.77;;;;;;;-4.17;84.44;100195.69;5073223;28;20040;-68
2022/12/15 00:48:43;;;;;;;88.90;31.55;;;;;;;-4.20;85.32;100200.16;5072849;28;20052;-69
2022/12/15 00:51:11;;;;;;;81.88;32.50;;;;;;;-4.18;85.76;100194.03;5073099;28;20547;-68
2022/12/15 01:21:32;;;;;;;88.90;31.65;;;;;;;-4.20;88.99;100218.31;5076274;28;20456;-68
2022/12/15 01:23:58;;;;;;;92.03;31.33;;;;;;;-4.30;89.16;100218.72;5092560;28;20440;-68
2022/12/15 01:26:25;;;;;;;99.95;32.05;;;;;;;-4.33;89.76;100215.44;5076846;28;20552;-68
2022/12/15 01:28:52;;;;;;;101.20;31.95;;;;;;;-4.25;90.11;100231.50;5076984;28;20061;-68
2022/12/15 01:31:18;;;;;;;95.45;32.22;;;;;;;-4.25;89.58;100219.38;5076595;28;20040;-68
2022/12/15 01:33:46;;;;;;;96.88;32.65;;;;;;;-4.29;90.57;100228.19;5076509;28;20525;-68
2022/12/15 01:36:13;;;;;;;89.82;31.80;;;;;;;-4.24;90.25;100235.72;5076615;28;20048;-68
2022/12/15 01:38:41;;;;;;;101.50;35.30;;;;;;;-4.20;89.90;100241.63;5092238;28;20139;-68
2022/12/15 01:41:09;;;;;;;88.57;32.95;;;;;;;-4.16;90.19;100245.75;5076451;28;20446;-68
2022/12/15 01:43:38;;;;;;;96.93;34.42;;;;;;;-4.12;90.23;100247.28;5076157;28;20040;-68
2022/12/15 01:46:09;;;;;;;117.03;34.08;;;;;;;-4.12;90.15;100249.88;5076564;28;20041;-68
2022/12/15 01:48:41;;;;;;;102.90;32.33;;;;;;;-4.15;90.80;100244.84;5076122;28;20387;-68
2022/12/15 01:51:31;;;;;;;98.45;33.53;;;;;;;-4.13;90.87;100250.78;5076332;28;20055;-68
2022/12/15 01:54:05;;;;;;;93.45;33.65;;;;;;;-4.06;91.22;100247.84;5076219;28;20044;-68
2022/12/15 01:56:35;;;;;;;90.70;33.72;;;;;;;-4.02;91.13;100253.72;5076229;28;20414;-68
2022/12/15 01:59:06;;;;;;;101.73;34.43;;;;;;;-4.03;91.05;100262.41;5076300;28;20049;-68
2022/12/15 02:01:33;;;;;;;89.78;32.83;;;;;;;-3.99;91.10;100261.34;5076283;28;20382;-68
2022/12/15 02:04:01;;;;;;;87.78;33.72;;;;;;;-3.96;90.99;100268.13;5075912;28;20044;-68
2022/12/15 02:06:28;;;;;;;88.40;31.67;;;;;;;-4.12;90.99;100268.84;5075313;28;20431;-68
2022/12/15 02:08:59;;;;;;;81.60;31.23;;;;;;;-4.14;91.20;100264.66;5076234;28;20045;-67
2022/12/15 02:14:09;;;;;;;80.65;31.77;;;;;;;-4.02;90.54;100265.81;5111681;27;20885;-68
2022/12/15 02:17:00;;;;;;;73.35;29.88;;;;;;;-3.98;90.45;100255.25;5111191;28;20044;-68
2022/12/15 02:22:45;;;;;;;86.28;31.55;;;;;;;-4.02;90.47;100260.63;5111342;27;20358;-68
2022/12/15 02:28:03;;;;;;;94.03;31.00;;;;;;;-3.99;89.75;100266.50;5070692;28;20364;-68
2022/12/15 02:33:51;;;;;;;94.25;30.80;;;;;;;-4.14;89.57;100262.06;5070403;28;20387;-67
2022/12/15 02:36:37;;;;;;;79.70;29.25;;;;;;;-4.51;89.33;100269.78;5070282;28;20072;-68
2022/12/15 02:39:04;;;;;;;81.05;29.60;;;;;;;-4.44;89.15;100276.38;5070384;28;20403;-68
2022/12/15 02:41:41;;;;;;;79.70;28.58;;;;;;;-4.37;88.50;100268.31;5070374;28;20048;-67
2022/12/15 02:44:16;;;;;;;87.43;28.65;;;;;;;-4.27;88.34;100279.94;5070536;28;20049;-67
2022/12/15 02:52:31;;;;;;;80.57;29.23;;;;;;;-4.48;88.94;100290.34;5151996;27;20425;-67
2022/12/15 02:55:38;;;;;;;94.13;28.63;;;;;;;-4.33;87.73;100298.31;5132184;28;20075;-67
2022/12/15 02:58:14;;;;;;;74.55;27.38;;;;;;;-4.44;88.21;100298.81;5131180;28;20128;-67
2022/12/15 03:00:46;;;;;;;82.93;27.40;;;;;;;-4.58;88.70;100308.94;5131464;28;20031;-67
2022/12/15 03:03:18;;;;;;;72.70;26.85;;;;;;;-4.57;89.00;100306.28;5131302;28;20119;-67
2022/12/15 03:05:52;;;;;;;82.95;27.50;;;;;;;-4.44;88.37;100309.16;5131175;28;20039;-67
2022/12/15 03:08:19;;;;;;;83.00;28.55;;;;;;;-4.44;88.53;100311.75;5131199;28;20051;-67
2022/12/15 03:10:49;;;;;;;87.05;29.10;;;;;;;-4.53;88.24;100313.03;5130970;28;20084;-67
2022/12/15 03:13:16;;;;;;;83.47;29.35;;;;;;;-4.47;88.25;100314.50;5131578;28;20051;-67
2022/12/15 03:15:44;;;;;;;75.30;26.80;;;;;;;-4.39;87.35;100315.00;5130823;28;20396;-67
2022/12/15 03:18:11;;;;;;;75.70;27.27;;;;;;;-4.45;87.42;100312.69;5096157;28;20605;-67
2022/12/15 03:20:37;;;;;;;79.97;29.27;;;;;;;-4.44;87.23;100320.38;5131082;28;20092;-67
2022/12/15 03:23:04;;;;;;;76.07;27.98;;;;;;;-4.44;87.47;100316.94;5130885;28;20457;-67
2022/12/15 03:25:31;;;;;;;87.22;28.88;;;;;;;-4.43;87.40;100321.22;5131086;28;20043;-67
2022/12/15 03:27:57;;;;;;;69.85;27.85;;;;;;;-4.43;87.53;100308.28;5131043;28;20044;-67
2022/12/15 03:30:24;;;;;;;74.15;27.55;;;;;;;-4.56;88.45;100307.16;5112279;28;20446;-67
2022/12/15 03:32:51;;;;;;;86.47;28.58;;;;;;;-4.47;87.91;100317.94;5130785;28;20059;-67
2022/12/15 03:35:17;;;;;;;88.18;28.40;;;;;;;-4.43;87.53;100316.03;5130754;28;20431;-67
2022/12/15 03:37:45;;;;;;;82.15;28.60;;;;;;;-4.49;88.25;100321.50;5130762;28;20046;-67
2022/12/15 03:40:13;;;;;;;79.43;28.05;;;;;;;-4.46;87.91;100326.53;5130978;28;20067;-67
2022/12/15 03:42:50;;;;;;;88.47;28.83;;;;;;;-4.45;87.82;100333.41;5112619;28;20051;-67
2022/12/15 03:45:20;;;;;;;88.88;29.83;;;;;;;-4.72;89.06;100335.44;5096950;28;20106;-66
2022/12/15 03:47:48;;;;;;;91.63;28.95;;;;;;;-4.62;88.84;100328.94;5130613;28;20151;-67
2022/12/15 03:50:17;;;;;;;85.80;27.90;;;;;;;-4.56;88.79;100336.47;5129823;28;20126;-67
2022/12/15 03:52:44;;;;;;;88.97;29.50;;;;;;;-4.71;89.33;100326.75;5112361;28;20118;-66
2022/12/15 03:55:11;;;;;;;88.68;28.85;;;;;;;-4.50;89.06;100340.53;5095294;28;20062;-67
2022/12/15 03:57:38;;;;;;;90.30;29.63;;;;;;;-4.42;88.96;100335.88;5130628;28;20044;-66
2022/12/15 04:00:05;;;;;;;94.75;29.60;;;;;;;-4.49;89.71;100340.47;5130106;28;20489;-67
2022/12/15 04:02:41;;;;;;;84.82;29.40;;;;;;;-4.40;89.16;100339.22;5121332;28;20048;-67
2022/12/15 04:05:16;;;;;;;88.05;27.92;;;;;;;-4.30;88.63;100340.47;5116519;28;20043;-67
2022/12/15 04:07:43;;;;;;;91.30;29.65;;;;;;;-4.26;88.61;100339.44;5116376;28;20052;-66
2022/12/15 04:10:11;;;;;;;96.25;29.38;;;;;;;-4.22;88.49;100331.50;5116352;28;20112;-67
2022/12/15 04:12:38;;;;;;;111.47;31.30;;;;;;;-4.23;89.35;100322.06;5116426;28;20036;-67
2022/12/15 04:15:07;;;;;;;102.90;30.23;;;;;;;-4.22;89.37;100332.38;5116826;28;20051;-66
2022/12/15 04:17:34;;;;;;;96.75;30.08;;;;;;;-4.23;89.42;100330.69;5098240;28;20052;-67
2022/12/15 04:20:09;;;;;;;91.13;30.15;;;;;;;-4.33;90.31;100338.03;5116147;28;20043;-67
2022/12/15 04:22:40;;;;;;;108.95;32.03;;;;;;;-4.44;90.90;100335.06;5116048;28;20048;-67
2022/12/15 05:32:13;;;;;;;125.13;34.67;;;;;;;-3.77;91.19;100370.00;5114511;28;20055;-67
2022/12/15 05:34:40;;;;;;;124.32;35.25;;;;;;;-3.79;90.69;100377.03;5114648;28;20489;-67
2022/12/15 05:37:06;;;;;;;130.77;35.63;;;;;;;-3.73;90.73;100381.94;5096667;28;20047;-67
2022/12/15 05:39:34;;;;;;;127.90;34.75;;;;;;;-3.86;90.81;100380.81;5114548;28;20084;-67
2022/12/15 05:42:00;;;;;;;120.53;35.15;;;;;;;-3.86;91.55;100380.81;5114711;28;20054;-67
2022/12/15 05:44:28;;;;;;;122.93;33.60;;;;;;;-3.79;90.92;100387.41;5114589;28;20497;-67
2022/12/15 05:46:55;;;;;;;123.85;35.65;;;;;;;-3.85;91.50;100382.50;5114602;28;20444;-67
2022/12/15 05:49:22;;;;;;;127.53;34.65;;;;;;;-3.88;91.63;100388.66;5114288;28;20047;-67
2022/12/15 05:51:49;;;;;;;116.95;35.63;;;;;;;-3.81;91.41;100389.22;5113939;28;20079;-67
2022/12/15 05:54:17;;;;;;;118.38;33.85;;;;;;;-3.78;91.09;100394.28;5096214;28;20442;-67
2022/12/15 05:56:45;;;;;;;134.13;36.08;;;;;;;-3.72;90.49;100399.16;5114247;28;20118;-67
2022/12/15 05:59:13;;;;;;;124.07;35.03;;;;;;;-3.70;89.95;100402.53;5114363;28;20039;-67
2022/12/15 06:01:40;;;;;;;129.73;35.42;;;;;;;-3.66;89.88;100398.03;5113933;28;20129;-66
2022/12/15 06:04:10;;;;;;;122.30;37.42;;;;;;;-3.71;90.46;100402.59;5114397;28;20054;-67
2022/12/15 06:06:37;;;;;;;128.40;37.05;;;;;;;-3.62;90.09;100401.31;5113383;28;20431;-67
2022/12/15 06:09:04;;;;;;;112.85;34.60;;;;;;;-3.77;90.08;100398.53;5114452;28;20099;-67
2022/12/15 06:11:31;;;;;;;114.47;36.40;;;;;;;-3.65;89.88;100398.91;5113661;28;20044;-67
2022/12/15 06:13:57;;;;;;;122.32;35.95;;;;;;;-3.88;90.74;100393.00;5096285;28;20052;-67
2022/12/15 06:16:26;;;;;;;113.07;34.38;;;;;;;-3.72;90.41;100396.56;5113691;28;20039;-67
2022/12/15 06:18:56;;;;;;;113.20;36.53;;;;;;;-3.61;90.23;100401.25;5079089;28;20043;-67
2022/12/15 06:21:26;;;;;;;109.38;33.10;;;;;;;-3.77;89.57;100406.31;5113694;28;20401;-67
2022/12/15 06:23:54;;;;;;;110.70;35.55;;;;;;;-3.72;90.24;100412.13;5113853;28;20431;-67
2022/12/15 06:26:24;;;;;;;118.50;37.50;;;;;;;-3.96;90.83;100400.31;5113888;28;20086;-67
2022/12/15 06:28:51;;;;;;;107.10;34.17;;;;;;;-3.81;90.86;100401.34;5113297;28;20040;-67
2022/12/15 06:31:21;;;;;;;106.82;35.25;;;;;;;-3.79;90.22;100410.72;5095765;28;20035;-67
2022/12/15 06:33:49;;;;;;;119.38;33.78;;;;;;;-3.73;90.54;100409.59;5113349;28;20047;-67
2022/12/15 06:36:17;;;;;;;103.07;33.83;;;;;;;-3.86;90.83;100406.72;5113945;28;20043;-67
2022/12/15 06:38:44;;;;;;;112.22;31.95;;;;;;;-3.89;90.42;100402.53;5113268;28;20035;-67
2022/12/15 06:41:14;;;;;;;109.15;33.17;;;;;;;-3.90;90.40;100400.84;5095348;28;20447;-67
2022/12/15 06:43:42;;;;;;;103.30;31.90;;;;;;;-3.99;90.43;100409.03;5113571;28;20054;-67
2022/12/15 06:46:09;;;;;;;101.97;30.33;;;;;;;-3.84;90.12;100399.72;5112949;28;20114;-67
2022/12/15 06:48:36;;;;;;;116.38;31.30;;;;;;;-3.89;89.62;100409.47;5113619;28;20451;-67
2022/12/15 06:51:05;;;;;;;101.03;31.85;;;;;;;-3.89;89.37;100407.72;5112746;28;20055;-67
2022/12/15 06:53:36;;;;;;;84.78;29.55;;;;;;;-3.83;89.18;100400.59;5113275;28;20054;-67
2022/12/15 06:56:06;;;;;;;84.07;28.90;;;;;;;-3.78;89.18;100408.97;5113056;28;20123;-67
2022/12/15 06:58:33;;;;;;;86.60;29.27;;;;;;;-3.99;89.45;100403.03;5094620;28;20134;-67
2022/12/15 07:01:04;;;;;;;80.85;28.95;;;;;;;-4.11;89.76;100405.25;5113308;28;20101;-67
2022/12/15 07:03:31;;;;;;;95.25;29.85;;;;;;;-4.05;89.93;100409.31;5113244;28;20055;-67
2022/12/15 07:06:02;;;;;;;83.43;28.00;;;;;;;-3.93;89.01;100416.56;5094915;28;20040;-67
2022/12/15 07:08:29;;;;;;;85.25;27.70;;;;;;;-3.95;88.81;100415.75;5110150;28;20064;-67
2022/12/15 07:10:58;;;;;;;84.15;28.08;;;;;;;-3.98;88.80;100431.47;5113213;28;20100;-67
2022/12/15 07:13:24;;;;;;;78.03;26.92;;;;;;;-4.10;89.10;100435.44;5113075;28;20062;-67
2022/12/15 07:15:52;;;;;;;73.35;26.02;;;;;;;-4.16;89.53;100427.94;5095141;28;20511;-69
2022/12/15 07:18:19;;;;;;;82.45;27.20;;;;;;;-4.05;89.08;100430.88;5113247;28;20059;-68
2022/12/15 07:20:45;;;;;;;76.63;26.58;;;;;;;-4.05;88.38;100433.47;5113124;28;20079;-67
2022/12/15 07:23:12;;;;;;;83.65;27.33;;;;;;;-4.21;89.24;100442.00;5113398;28;20044;-67
2022/12/15 07:25:39;;;;;;;83.93;27.23;;;;;;;-4.27;89.03;100443.94;5113189;28;20039;-67
2022/12/15 07:28:07;;;;;;;78.30;25.55;;;;;;;-4.37;89.46;100444.41;5113423;28;20478;-67
2022/12/15 07:30:34;;;;;;;86.97;26.67;;;;;;;-4.36;90.17;100448.69;5113137;28;20043;-67
2022/12/15 07:33:04;;;;;;;76.00;27.38;;;;;;;-4.23;89.70;100452.44;5113054;28;20043;-67
2022/12/15 07:35:31;;;;;;;76.50;26.50;;;;;;;-4.16;89.20;100450.44;5113231;28;20052;-67
2022/12/15 07:37:59;;;;;;;79.88;28.30;;;;;;;-4.20;89.06;100448.84;5115439;28;20067;-67
2022/12/15 07:40:25;;;;;;;76.63;26.58;;;;;;;-4.42;90.13;100449.81;5117095;28;20047;-67
2022/12/15 07:42:52;;;;;;;79.32;25.95;;;;;;;-4.26;89.53;100457.72;5098726;28;20480;-67
2022/12/15 07:45:20;;;;;;;82.57;25.95;;;;;;;-4.17;89.33;100456.50;5117182;28;20051;-67
2022/12/15 07:47:49;;;;;;;75.60;24.83;;;;;;;-4.19;89.19;100450.56;5116515;28;20039;-67
2022/12/15 07:50:17;;;;;;;73.45;25.73;;;;;;;-4.05;88.61;100458.56;5116591;28;20081;-67
2022/12/15 07:52:45;;;;;;;67.82;24.70;;;;;;;-4.10;87.80;100460.50;5116867;28;20046;-67
2022/12/15 07:55:12;;;;;;;71.75;24.40;;;;;;;-4.09;87.85;100462.19;5098669;28;20054;-66
2022/12/15 07:57:38;;;;;;;75.22;24.27;;;;;;;-4.12;87.95;100459.75;5108148;28;20524;-65
2022/12/15 08:00:06;;;;;;;65.47;23.38;;;;;;;-3.98;87.40;100461.69;5102814;28;20070;-72
2022/12/15 08:02:40;;;;;;;69.82;25.38;;;;;;;-4.03;87.21;100461.91;5078958;28;20032;-69
2022/12/15 08:05:08;;;;;;;66.60;24.75;;;;;;;-4.18;87.92;100457.41;5110027;27;20063;-66
2022/12/15 08:07:35;;;;;;;74.22;26.27;;;;;;;-4.33;89.15;100464.94;5111099;27;20092;-67
2022/12/15 08:10:02;;;;;;;68.63;25.20;;;;;;;-4.31;88.70;100459.69;5112419;28;20051;-66
2022/12/15 08:12:30;;;;;;;72.93;25.52;;;;;;;-4.24;88.15;100458.50;5106686;28;20040;-66
2022/12/15 08:14:57;;;;;;;74.20;25.55;;;;;;;-4.20;88.39;100459.22;5109112;27;20473;-66
2022/12/15 08:17:23;;;;;;;66.72;25.48;;;;;;;-4.19;88.93;100466.09;5109226;27;20088;-66
2022/12/15 08:19:50;;;;;;;66.40;24.73;;;;;;;-4.30;88.64;100463.97;5097395;28;20580;-66
2022/12/15 08:22:20;;;;;;;73.80;25.75;;;;;;;-4.11;88.59;100458.81;5109882;28;20032;-67
2022/12/15 08:24:47;;;;;;;71.78;26.10;;;;;;;-4.10;88.92;100456.16;5104061;28;20043;-67
2022/12/15 08:27:14;;;;;;;79.45;27.67;;;;;;;-4.21;90.01;100460.97;5115066;27;20049;-67
2022/12/15 08:29:40;;;;;;;232.45;69.78;;;;;;;-4.21;90.09;100468.75;5115379;27;20031;-65
2022/12/15 08:32:16;;;;;;;85.55;27.13;;;;;;;-4.02;89.66;100475.72;5112647;27;20035;-66
2022/12/15 08:34:42;;;;;;;87.57;28.77;;;;;;;-4.08;89.91;100475.06;5095273;28;20048;-67
2022/12/15 08:37:09;;;;;;;89.22;29.45;;;;;;;-4.29;91.15;100476.03;5114602;28;20049;-67
2022/12/15 08:39:36;;;;;;;113.68;31.42;;;;;;;-4.22;91.26;100479.16;5110615;28;20397;-67
2022/12/15 08:42:03;;;;;;;96.95;30.83;;;;;;;-4.21;91.66;100494.66;5095826;28;20043;-67
2022/12/15 08:44:31;;;;;;;100.43;31.98;;;;;;;-4.13;91.74;100496.91;5112422;28;20048;-67
2022/12/15 08:46:58;;;;;;;106.15;31.40;;;;;;;-4.10;91.45;100497.63;5113447;28;20075;-67
2022/12/15 08:49:25;;;;;;;84.38;29.05;;;;;;;-3.95;91.43;100490.09;5104311;28;20049;-67
2022/12/15 08:51:51;;;;;;;99.78;31.35;;;;;;;-4.12;91.54;100494.25;5104690;28;20058;-67
2022/12/15 08:54:20;;;;;;;104.57;33.00;;;;;;;-4.02;91.67;100494.72;5113637;28;20442;-67
2022/12/15 08:56:46;;;;;;;116.70;30.25;;;;;;;-4.33;92.98;100493.44;5105380;28;20055;-67
2022/12/15 08:59:13;;;;;;;106.78;32.33;;;;;;;-4.13;92.99;100496.91;5102964;28;20047;-67
2022/12/15 09:01:40;;;;;;;121.38;36.88;;;;;;;-4.27;93.42;100498.34;5099844;28;20397;-67
2022/12/15 09:04:07;;;;;;;116.90;34.80;;;;;;;-4.23;93.04;100504.25;5081656;28;20052;-67
2022/12/15 09:06:35;;;;;;;114.03;33.05;;;;;;;-3.97;92.88;100500.50;5088873;28;20051;-67
2022/12/15 09:09:06;;;;;;;119.72;34.42;;;;;;;-4.20;93.21;100511.03;5098910;28;21258;-67
2022/12/15 09:11:34;;;;;;;105.93;33.20;;;;;;;-4.01;93.60;100506.75;5084187;28;20039;-67
2022/12/15 09:14:01;;;;;;;128.48;34.13;;;;;;;-4.04;93.37;100514.63;5090539;28;20040;-67
2022/12/15 09:16:28;;;;;;;121.03;34.55;;;;;;;-3.88;93.15;100512.22;5079498;28;20032;-67
2022/12/15 09:18:58;;;;;;;109.18;32.65;;;;;;;-3.87;93.32;100519.94;5073908;28;20036;-67
2022/12/15 09:21:27;;;;;;;114.95;34.75;;;;;;;-3.76;92.92;100523.81;5109177;28;20044;-67
2022/12/15 09:23:59;;;;;;;113.78;36.45;;;;;;;-3.71;92.53;100524.44;5101161;28;20058;-67
2022/12/15 09:26:28;;;;;;;111.43;33.70;;;;;;;-3.64;92.12;100532.78;5100943;27;20055;-67
2022/12/15 09:28:55;;;;;;;121.00;35.97;;;;;;;-3.72;92.54;100533.16;5101775;28;20052;-64
2022/12/15 09:31:27;;;;;;;121.15;37.40;;;;;;;-3.57;91.68;100535.03;5105539;28;20046;-64
2022/12/15 09:33:56;;;;;;;126.30;38.78;;;;;;;-3.64;91.95;100545.75;5093753;28;20507;-66
2022/12/15 09:36:23;;;;;;;125.18;36.60;;;;;;;-3.49;91.62;100547.69;5099392;28;20048;-65
2022/12/15 09:38:50;;;;;;;128.10;38.50;;;;;;;-3.45;91.50;100548.38;5107598;28;20040;-65
2022/12/15 09:41:23;;;;;;;130.93;38.85;;;;;;;-3.39;91.50;100548.94;5111915;28;20504;-65
2022/12/15 09:44:12;;;;;;;129.30;36.50;;;;;;;-3.23;91.27;100558.63;5101628;28;20097;-65
2022/12/15 09:46:56;;;;;;;109.03;35.72;;;;;;;-3.10;91.03;100560.56;5098741;28;20040;-65
2022/12/15 09:50:00;;;;;;;129.88;37.92;;;;;;;-3.22;90.52;100565.47;5093102;28;20036;-65
2022/12/15 09:52:34;;;;;;;136.65;38.30;;;;;;;-3.03;90.18;100565.50;5110476;28;20039;-67
2022/12/15 09:55:05;;;;;;;112.30;35.00;;;;;;;-2.93;89.88;100566.72;5077413;28;20052;-65
2022/12/15 09:57:43;;;;;;;123.82;38.85;;;;;;;-2.89;89.36;100565.69;5079070;28;20074;-65
2022/12/15 10:03:35;;;;;;;138.43;40.47;;;;;;;-3.01;88.95;100563.66;5100074;27;20404;-66
2022/12/15 10:06:06;;;;;;;123.85;35.50;;;;;;;-3.20;90.18;100561.94;5081799;28;20044;-66
2022/12/15 10:08:56;;;;;;;128.68;38.17;;;;;;;-3.01;89.89;100561.91;5086242;28;20051;-66
2022/12/15 10:11:56;;;;;;;134.52;37.03;;;;;;;-2.88;89.97;100561.34;5102910;28;20078;-66
2022/12/15 10:14:38;;;;;;;124.07;37.70;;;;;;;-2.77;89.77;100561.66;5100326;28;20043;-66
2022/12/15 10:17:27;;;;;;;138.20;41.22;;;;;;;-2.80;88.53;100562.66;5087131;28;20036;-66
2022/12/15 10:20:02;;;;;;;137.57;39.60;;;;;;;-2.73;89.07;100553.66;5081900;28;20045;-66
2022/12/15 10:22:32;;;;;;;137.90;39.55;;;;;;;-2.98;89.68;100548.78;5094114;28;20052;-66
2022/12/15 10:25:14;;;;;;;121.97;37.95;;;;;;;-3.05;90.15;100555.19;5092272;28;20044;-66
2022/12/15 10:31:06;;;;;;;140.40;39.72;;;;;;;-2.91;89.84;100564.91;5089579;27;20344;-65
2022/12/15 10:33:35;;;;;;;138.80;40.53;;;;;;;-2.84;89.29;100558.50;5060753;28;20444;-66
2022/12/15 10:36:12;;;;;;;151.63;41.33;;;;;;;-2.97;89.51;100562.59;5062890;28;20059;-66
2022/12/15 10:38:44;;;;;;;148.15;41.45;;;;;;;-2.77;89.75;100572.88;5059505;28;20119;-66
2022/12/15 10:41:13;;;;;;;;;;;;;;;-2.73;89.23;100578.78;5076817;28;20047;-66
2022/12/15 10:43:42;;;;;;;141.30;37.28;;;;;;;-2.67;89.23;100570.69;5059237;28;20346;-67
2022/12/15 10:46:13;;;;;;;142.50;42.80;;;;;;;-2.80;88.89;100572.19;5066553;28;20044;-66
2022/12/15 10:48:44;;;;;;;151.40;43.70;;;;;;;-2.75;88.92;100573.69;5053133;28;20522;-66
2022/12/15 10:51:16;;;;;;;145.18;45.15;;;;;;;-2.75;89.46;100573.69;5071458;28;20055;-66
2022/12/15 10:54:11;;;;;;;148.10;42.47;;;;;;;-2.97;90.39;100572.97;5070081;28;20044;-66
2022/12/15 10:56:57;;;;;;;144.98;40.63;;;;;;;-2.85;89.71;100566.38;5075739;28;20045;-66
2022/12/15 10:59:34;;;;;;;146.90;42.20;;;;;;;-3.17;89.89;100560.94;5064090;28;20126;-66
2022/12/15 11:05:14;;;;;;;154.02;43.00;;;;;;;-2.98;89.41;100561.75;5077170;27;20421;-68
2022/12/15 11:07:49;;;;;;;166.63;43.67;;;;;;;-3.03;89.64;100561.13;5083117;28;20049;-65
2022/12/15 11:10:23;;;;;;;176.05;43.72;;;;;;;-3.11;90.08;100556.31;5073185;28;20051;-65
2022/12/15 11:13:11;;;;;;;161.18;43.03;;;;;;;-3.19;91.00;100553.22;5076246;28;20510;-65
2022/12/15 11:15:42;;;;;;;157.38;42.60;;;;;;;-3.07;91.32;100554.41;5076577;28;20044;-66
2022/12/15 11:18:34;;;;;;;164.75;43.22;;;;;;;-3.17;91.14;100555.75;5090416;28;20068;-66
2022/12/15 11:21:17;;;;;;;168.57;44.75;;;;;;;-3.33;90.80;100559.06;5077829;28;20044;-67
2022/12/15 11:24:09;;;;;;;159.30;41.15;;;;;;;-3.47;92.21;100556.22;5078396;28;20036;-67
2022/12/15 11:26:57;;;;;;;167.20;42.47;;;;;;;-3.02;91.38;100543.78;5074696;28;20543;-67
2022/12/15 11:29:48;;;;;;;156.30;42.58;;;;;;;-3.18;90.87;100544.53;5072884;28;20051;-66
2022/12/15 11:32:20;;;;;;;152.38;42.80;;;;;;;-2.98;89.97;100548.78;5085324;28;20131;-66
2022/12/15 11:34:47;;;;;;;166.23;43.47;;;;;;;-3.15;90.08;100544.38;5078182;28;20450;-67
2022/12/15 11:37:37;;;;;;;172.88;44.28;;;;;;;-3.22;91.28;100535.22;5080861;28;20041;-68
2022/12/15 11:40:39;;;;;;;150.82;40.53;;;;;;;-3.09;90.79;100530.28;5080048;28;20043;-66
2022/12/15 11:43:26;;;;;;;;;;;;;;;-2.90;90.46;100538.88;5089155;28;20110;-66
2022/12/15 11:46:19;;;;;;;142.70;39.45;;;;;;;-2.83;89.68;100536.84;5078975;28;19966;-66
2022/12/15 11:49:15;;;;;;;173.10;43.55;;;;;;;-2.57;89.48;100539.91;5076882;28;20102;-66
2022/12/15 11:52:10;;;;;;;151.20;42.15;;;;;;;-3.04;90.50;100540.44;5072095;28;20048;-66
2022/12/15 11:54:49;;;;;;;153.05;40.60;;;;;;;-2.85;89.73;100538.66;5066393;28;20056;-66
2022/12/15 11:57:51;;;;;;;152.02;43.35;;;;;;;-2.82;89.39;100535.94;5075846;28;20097;-68
2022/12/15 12:00:20;;;;;;;170.23;42.63;;;;;;;-2.88;89.30;100533.59;5076427;28;20037;-68
2022/12/15 12:03:00;;;;;;;165.07;43.85;;;;;;;-2.72;89.22;100542.34;5067704;28;20098;-68
2022/12/15 12:05:43;;;;;;;148.77;41.50;;;;;;;-2.73;89.39;100540.69;5067841;28;20039;-68
2022/12/15 12:08:39;;;;;;;167.25;44.08;;;;;;;-2.59;88.74;100549.56;5065022;28;20045;-68
2022/12/15 12:11:15;;;;;;;155.02;42.17;;;;;;;-2.54;88.06;100544.97;5063833;28;20053;-68
2022/12/15 12:14:06;;;;;;;162.45;40.67;;;;;;;-2.62;88.63;100536.69;5074992;28;20123;-67
2022/12/15 12:17:03;;;;;;;136.57;40.75;;;;;;;-2.48;88.66;100530.84;5066902;28;20048;-67
2022/12/15 12:19:42;;;;;;;149.98;40.33;;;;;;;-2.24;88.11;100531.38;5054709;28;20115;-66
2022/12/15 12:22:34;;;;;;;161.73;42.85;;;;;;;-2.24;87.54;100533.97;5049041;28;20048;-66
2022/12/15 12:25:07;;;;;;;153.85;43.10;;;;;;;-2.37;87.44;100531.97;5073545;28;20037;-66
2022/12/15 12:27:57;;;;;;;147.70;40.05;;;;;;;-2.52;87.81;100530.16;5065778;28;20050;-66
2022/12/15 12:30:30;;;;;;;156.32;41.75;;;;;;;-2.48;87.75;100526.47;5080322;28;20479;-66
2022/12/15 12:33:36;;;;;;;144.10;42.95;;;;;;;-2.47;87.57;100527.31;5068145;28;20128;-69
2022/12/15 12:36:10;;;;;;;156.00;41.75;;;;;;;-2.43;88.15;100519.31;5080440;28;20052;-66
2022/12/15 12:38:45;;;;;;;169.82;45.38;;;;;;;-2.23;87.50;100515.72;5058915;28;20052;-67
2022/12/15 12:43:54;;;;;;;168.25;44.97;;;;;;;-1.83;85.22;100512.81;5147888;27;20127;-67
2022/12/15 12:46:44;;;;;;;151.95;44.60;;;;;;;-1.67;84.57;100511.09;5148946;27;20088;-66
2022/12/15 12:49:18;;;;;;;162.32;44.80;;;;;;;-1.60;84.64;100512.44;5142003;27;20147;-66
2022/12/15 12:51:52;;;;;;;158.50;43.97;;;;;;;-1.36;83.76;100504.25;5132706;27;20047;-66
2022/12/15 12:54:39;;;;;;;162.57;44.35;;;;;;;-1.44;84.01;100499.44;5141203;27;20065;-67
2022/12/15 13:00:04;;;;;;;165.02;45.25;;;;;;;-1.38;83.78;100490.47;5117698;27;20358;-67
2022/12/15 13:05:28;;;;;;;177.30;46.97;;;;;;;-1.18;82.12;100484.19;5105829;27;20737;-67
2022/12/15 13:10:41;;;;;;;185.05;48.92;;;;;;;-1.23;80.97;100465.38;5095481;27;20363;-67
2022/12/15 13:13:31;;;;;;;169.70;46.45;;;;;;;-1.26;81.51;100461.16;5098220;28;20571;-67
2022/12/15 13:16:10;;;;;;;183.13;47.05;;;;;;;-1.09;81.38;100448.97;5101727;28;20046;-68
2022/12/15 13:19:02;;;;;;;184.43;45.90;;;;;;;-1.18;80.97;100434.72;5100432;28;20063;-68
2022/12/15 13:21:50;;;;;;;172.68;47.95;;;;;;;-1.35;81.56;100427.84;5109184;28;20078;-68
2022/12/15 13:24:44;;;;;;;168.82;46.25;;;;;;;-1.49;82.17;100428.63;5093752;28;20067;-69
2022/12/15 13:27:14;;;;;;;171.95;45.15;;;;;;;-1.69;82.80;100427.09;5091283;28;20052;-69
2022/12/15 13:29:59;;;;;;;158.00;43.17;;;;;;;-2.04;84.79;100427.22;5100618;27;20036;-68
2022/12/15 13:32:33;;;;;;;162.98;43.72;;;;;;;-1.86;84.83;100429.75;5105543;28;20130;-68
2022/12/15 13:35:20;;;;;;;158.50;45.45;;;;;;;-1.76;84.62;100430.97;5106067;28;20384;-69
2022/12/15 13:37:57;;;;;;;152.52;41.67;;;;;;;-1.73;83.71;100435.97;5075708;28;20052;-68
2022/12/15 13:40:48;;;;;;;163.48;42.80;;;;;;;-1.59;83.26;100430.88;5095645;28;20038;-69
2022/12/15 13:43:41;;;;;;;156.75;42.97;;;;;;;-1.57;83.85;100422.97;5090749;28;20060;-69
2022/12/15 13:46:14;;;;;;;153.70;40.83;;;;;;;-1.55;83.28;100415.94;5101787;28;20047;-69
2022/12/15 13:48:50;;;;;;;140.20;42.63;;;;;;;-1.65;83.97;100417.38;5095151;28;20044;-68
2022/12/15 13:51:26;;;;;;;157.10;44.38;;;;;;;-1.64;83.81;100404.25;5092184;28;20055;-68
2022/12/15 13:53:58;;;;;;;141.65;41.97;;;;;;;-1.67;83.60;100409.66;5088911;28;20044;-68
2022/12/15 13:56:51;;;;;;;143.93;43.20;;;;;;;-1.68;83.57;100407.97;5101610;28;20490;-68
2022/12/15 13:59:29;;;;;;;132.77;40.03;;;;;;;-1.95;84.75;100402.50;5089115;28;20040;-68
2022/12/15 14:01:56;;;;;;;135.88;39.10;;;;;;;-2.24;85.55;100394.47;5097631;28;20140;-68
2022/12/15 14:04:23;;;;;;;132.95;41.67;;;;;;;-1.95;84.96;100387.75;5102341;27;20046;-68
2022/12/15 14:06:53;;;;;;;134.30;40.00;;;;;;;-1.76;84.31;100395.38;5097423;28;20123;-69
2022/12/15 14:09:28;;;;;;;134.95;39.03;;;;;;;-1.90;83.85;100390.09;5065842;28;20131;-69
2022/12/15 14:11:56;;;;;;;129.63;38.35;;;;;;;-1.79;83.69;100398.13;5103691;28;20047;-69
2022/12/15 14:14:45;;;;;;;135.75;38.55;;;;;;;-1.68;82.80;100389.75;5109225;28;20040;-69
2022/12/15 14:18:05;;;;;;;133.57;39.63;;;;;;;-1.67;83.05;100390.59;5104340;28;20043;-51
2022/12/15 14:20:39;;;;;;;125.32;38.03;;;;;;;-1.70;82.91;100390.78;5036590;28;20055;-48
2022/12/15 14:23:18;;;;;;;136.98;38.47;;;;;;;-1.71;82.53;100382.13;5078557;28;20114;-46
2022/12/15 14:28:34;;;;;;;125.97;37.10;;;;;;;-1.76;82.91;100374.56;5086965;27;20397;-48